Time;durP1;ratioP1;P1;durP2;ratioP2;P2;SDS_P1;SDS_P2;PMS_P1;PMS_P2;Temp;Humidity;BMP_temperature;BMP_pressure;BME280_temperature;BME280_humidity;BME280_pressure;Samples;Min_cycle;Max_cycle;Signal;HPM_P1;HPM_P2
2023/09/18 00:00:53;;;;;;;20.98;18.98;;;17.00;99.90;;;;;;6280464;22;20010;-93
2023/09/18 00:03:20;;;;;;;22.10;20.00;;;;;;;;;;6280604;22;20459;-93
2023/09/18 00:05:49;;;;;;;21.20;19.17;;;16.90;99.90;;;;;;6279252;22;20033;-93
2023/09/18 00:08:15;;;;;;;21.25;19.35;;;16.90;99.90;;;;;;6305683;22;20037;-92
2023/09/18 00:10:41;;;;;;;23.33;21.17;;;17.00;99.90;;;;;;6305829;22;20132;-93
2023/09/18 00:13:07;;;;;;;24.80;22.60;;;17.00;99.90;;;;;;6308880;22;20064;-94
2023/09/18 00:15:33;;;;;;;27.95;25.13;;;17.00;99.90;;;;;;6306485;22;20342;-93
2023/09/18 00:17:58;;;;;;;26.25;23.55;;;17.00;99.90;;;;;;6282520;22;20531;-94
2023/09/18 00:20:26;;;;;;;29.60;26.73;;;17.00;99.90;;;;;;6282541;22;20094;-94
2023/09/18 00:22:55;;;;;;;28.90;25.88;;;17.20;99.90;;;;;;6283019;22;20007;-93
2023/09/18 00:25:22;;;;;;;29.92;27.20;;;17.10;99.90;;;;;;6282528;22;20051;-93
2023/09/18 00:27:48;;;;;;;28.58;26.00;;;17.20;99.90;;;;;;6284845;22;20019;-93
2023/09/18 00:30:14;;;;;;;32.97;29.88;;;;;;;;;;6311409;22;20018;-92
2023/09/18 00:32:40;;;;;;;33.28;30.02;;;17.20;99.90;;;;;;6308263;22;20340;-92
2023/09/18 00:35:06;;;;;;;31.45;28.50;;;17.40;99.90;;;;;;6281965;22;20019;-93
2023/09/18 00:37:31;;;;;;;30.05;27.25;;;17.30;99.90;;;;;;6307737;22;20086;-93
2023/09/18 00:39:57;;;;;;;30.00;26.98;;;17.30;99.90;;;;;;6307845;22;20017;-93
2023/09/18 00:42:23;;;;;;;29.02;26.30;;;17.40;99.90;;;;;;6280514;22;20489;-93
2023/09/18 00:44:50;;;;;;;28.67;26.00;;;17.40;99.90;;;;;;6280129;22;20038;-93
2023/09/18 00:47:17;;;;;;;29.10;26.50;;;17.50;99.90;;;;;;6296002;22;20011;-93
2023/09/18 00:49:46;;;;;;;27.63;24.98;;;17.60;99.90;;;;;;6292390;22;20042;-93
2023/09/18 00:52:14;;;;;;;27.38;24.92;;;17.50;99.90;;;;;;6282898;22;20112;-92
2023/09/18 00:54:41;;;;;;;27.23;24.75;;;17.50;99.90;;;;;;6306657;22;20007;-93
2023/09/18 00:57:08;;;;;;;27.52;25.20;;;17.40;99.90;;;;;;6308443;22;20006;-93
2023/09/18 00:59:34;;;;;;;27.02;24.73;;;17.50;99.90;;;;;;6306594;22;20113;-93
2023/09/18 01:02:00;;;;;;;28.40;25.73;;;17.40;99.90;;;;;;6307099;22;20130;-93
2023/09/18 01:04:28;;;;;;;27.50;25.00;;;17.50;99.90;;;;;;6308472;22;20011;-93
2023/09/18 01:06:56;;;;;;;;;;;17.40;99.90;;;;;;6288450;22;20007;-93
2023/09/18 01:09:22;;;;;;;26.80;24.13;;;17.40;99.90;;;;;;6288538;22;19914;-94
2023/09/18 01:11:51;;;;;;;27.58;24.95;;;17.40;99.90;;;;;;6331069;22;20025;-93
2023/09/18 01:14:35;;;;;;;26.02;23.58;;;17.40;99.90;;;;;;6310836;22;20087;-94
2023/09/18 01:17:05;;;;;;;26.00;23.67;;;17.40;99.90;;;;;;6308101;22;20013;-94
2023/09/18 01:19:45;;;;;;;25.08;22.75;;;17.30;99.90;;;;;;6312967;22;20078;-95
2023/09/18 01:22:13;;;;;;;25.58;23.30;;;17.30;99.90;;;;;;6338925;22;20011;-94
2023/09/18 01:24:41;;;;;;;27.02;24.52;;;17.30;99.90;;;;;;6310581;22;20046;-94
2023/09/18 01:27:10;;;;;;;28.08;25.48;;;17.30;99.90;;;;;;6287717;22;20449;-94
2023/09/18 01:29:36;;;;;;;26.67;23.90;;;17.20;99.90;;;;;;6313325;22;20021;-94
2023/09/18 01:32:02;;;;;;;27.00;24.15;;;17.20;99.90;;;;;;6312731;22;20011;-94
2023/09/18 01:34:37;;;;;;;26.65;23.95;;;17.20;99.90;;;;;;6312660;22;20071;-95
2023/09/18 01:37:05;;;;;;;25.38;22.98;;;17.20;99.90;;;;;;6287476;22;20011;-94
2023/09/18 01:39:31;;;;;;;;;;;17.20;99.90;;;;;;6296174;22;20205;-94
2023/09/18 01:42:05;;;;;;;24.70;22.40;;;17.20;99.90;;;;;;6310616;22;19922;-94
2023/09/18 01:44:32;;;;;;;24.20;22.08;;;17.10;99.90;;;;;;6308754;22;20244;-93
2023/09/18 01:47:03;;;;;;;23.93;21.73;;;17.20;99.90;;;;;;6327503;22;20029;-92
2023/09/18 01:49:32;;;;;;;23.02;20.92;;;17.20;99.90;;;;;;6315143;22;20015;-93
2023/09/18 01:51:57;;;;;;;24.50;21.92;;;17.20;99.90;;;;;;6300278;22;20010;-94
2023/09/18 01:54:24;;;;;;;22.75;20.65;;;17.10;99.90;;;;;;6320886;22;20034;-94
2023/09/18 01:56:50;;;;;;;25.37;22.87;;;17.20;99.90;;;;;;6282812;22;20011;-92
2023/09/18 01:59:16;;;;;;;23.35;21.15;;;17.20;99.90;;;;;;6308930;22;20057;-92
2023/09/18 02:01:42;;;;;;;22.90;20.80;;;17.10;99.90;;;;;;6282105;22;20010;-92
2023/09/18 02:04:07;;;;;;;22.83;20.75;;;17.10;99.90;;;;;;6282019;22;20350;-92
2023/09/18 02:06:33;;;;;;;23.13;20.92;;;17.20;99.90;;;;;;6280490;22;20038;-92
2023/09/18 02:09:00;;;;;;;21.42;19.30;;;17.10;99.90;;;;;;6281009;22;20015;-92
2023/09/18 02:11:26;;;;;;;23.10;20.97;;;17.20;99.90;;;;;;6306152;22;20014;-91
2023/09/18 02:13:52;;;;;;;21.92;19.83;;;17.10;99.90;;;;;;6284065;22;20057;-92
2023/09/18 02:16:19;;;;;;;22.55;20.42;;;17.20;99.90;;;;;;6307311;22;20014;-92
2023/09/18 02:18:44;;;;;;;22.63;20.53;;;17.20;99.90;;;;;;6283533;22;20475;-92
2023/09/18 02:21:10;;;;;;;21.73;19.77;;;17.30;99.90;;;;;;6282706;22;20017;-92
2023/09/18 02:23:36;;;;;;;22.33;20.13;;;17.30;99.90;;;;;;6282486;22;20022;-92
2023/09/18 02:26:01;;;;;;;22.73;20.65;;;17.20;99.90;;;;;;6282417;22;20125;-92
2023/09/18 02:28:27;;;;;;;21.13;19.17;;;17.30;99.90;;;;;;6280635;22;20332;-92
2023/09/18 02:30:53;;;;;;;22.80;20.85;;;17.30;99.90;;;;;;6281067;22;20090;-93
2023/09/18 02:33:18;;;;;;;23.02;20.73;;;17.40;99.90;;;;;;6308263;22;20393;-92
2023/09/18 02:35:44;;;;;;;23.90;21.60;;;17.30;99.90;;;;;;6282395;22;20006;-92
2023/09/18 02:38:10;;;;;;;24.08;21.52;;;17.30;99.90;;;;;;6306523;22;20059;-93
2023/09/18 02:40:35;;;;;;;24.90;20.73;;;17.30;99.90;;;;;;6306082;22;20440;-93
2023/09/18 02:43:02;;;;;;;22.10;19.98;;;17.30;99.90;;;;;;6307617;22;20014;-93
2023/09/18 02:45:27;;;;;;;20.65;18.83;;;17.40;99.90;;;;;;6281381;22;20440;-93
2023/09/18 02:47:53;;;;;;;22.27;20.13;;;17.30;99.90;;;;;;6307618;22;20017;-92
2023/09/18 02:50:19;;;;;;;21.05;18.90;;;17.40;99.90;;;;;;6305650;22;20007;-93
2023/09/18 02:52:44;;;;;;;19.63;17.85;;;17.40;99.90;;;;;;6305443;22;20007;-93
2023/09/18 02:55:10;;;;;;;19.70;17.92;;;17.40;99.90;;;;;;6279987;22;20019;-93
2023/09/18 02:57:36;;;;;;;18.90;17.15;;;17.40;99.90;;;;;;6281695;22;20026;-93
2023/09/18 03:00:03;;;;;;;20.10;18.20;;;17.30;99.90;;;;;;6280037;22;20018;-93
2023/09/18 03:02:28;;;;;;;20.27;18.25;;;17.40;99.90;;;;;;6306192;22;20093;-93
2023/09/18 03:04:54;;;;;;;20.63;18.55;;;17.30;99.90;;;;;;6305973;22;20046;-92
2023/09/18 03:07:20;;;;;;;19.25;17.63;;;17.60;99.90;;;;;;6309809;22;20014;-93
2023/09/18 03:09:45;;;;;;;18.48;16.73;;;17.50;99.90;;;;;;6318401;22;20007;-92
2023/09/18 03:12:11;;;;;;;19.08;17.20;;;;;;;;;;6318072;22;20058;-91
2023/09/18 03:14:37;;;;;;;19.90;17.80;;;;;;;;;;6307172;22;20007;-92
2023/09/18 03:17:03;;;;;;;20.52;18.63;;;17.60;99.90;;;;;;6306035;22;20137;-91
2023/09/18 03:19:29;;;;;;;18.55;16.75;;;17.60;99.90;;;;;;6280271;22;20059;-91
2023/09/18 03:21:54;;;;;;;17.98;16.27;;;17.60;99.90;;;;;;6278463;22;20019;-92
2023/09/18 03:24:20;;;;;;;18.25;16.45;;;17.50;99.90;;;;;;6278124;22;20006;-92
2023/09/18 03:26:46;;;;;;;18.20;16.40;;;17.50;99.90;;;;;;6281485;22;20470;-95
2023/09/18 03:29:11;;;;;;;18.25;16.38;;;17.50;99.90;;;;;;6282581;22;20359;-95
2023/09/18 03:31:37;;;;;;;17.83;16.02;;;17.50;99.90;;;;;;6282589;22;20015;-94
2023/09/18 03:34:02;;;;;;;17.23;15.65;;;17.50;99.90;;;;;;6283096;22;20093;-95
2023/09/18 03:36:28;;;;;;;18.33;16.25;;;17.60;99.90;;;;;;6306707;22;20084;-94
2023/09/18 03:38:54;;;;;;;18.55;16.67;;;17.40;99.90;;;;;;6282563;22;20014;-95
2023/09/18 03:41:19;;;;;;;18.52;16.35;;;17.60;99.90;;;;;;6281222;22;20061;-95
2023/09/18 03:43:45;;;;;;;17.70;15.95;;;17.50;99.90;;;;;;6282872;22;20007;-96
2023/09/18 03:46:11;;;;;;;17.80;16.05;;;;;;;;;;6282018;22;20094;-96
2023/09/18 03:48:37;;;;;;;17.33;14.70;;;17.60;99.90;;;;;;6281614;22;20011;-95
2023/09/18 03:51:06;;;;;;;17.58;15.70;;;17.60;99.90;;;;;;6281939;22;20021;-95
2023/09/18 03:53:33;;;;;;;16.25;14.60;;;17.60;99.90;;;;;;6282218;22;20028;-95
2023/09/18 03:55:59;;;;;;;16.17;14.57;;;17.60;99.90;;;;;;6280090;22;20075;-96
2023/09/18 03:58:25;;;;;;;16.73;15.13;;;17.60;99.90;;;;;;6280443;22;20113;-95
2023/09/18 04:00:51;;;;;;;16.48;14.77;;;17.60;99.90;;;;;;6280662;22;20057;-94
2023/09/18 05:18:53;;;;;;;14.88;12.80;;;17.80;99.90;;;;;;6264624;22;20028;-96
2023/09/18 05:21:24;;;;;;;14.65;12.50;;;17.90;99.90;;;;;;6225092;22;20016;-96
2023/09/18 05:23:50;;;;;;;14.43;11.88;;;18.00;99.90;;;;;;6228055;22;20015;-96
2023/09/18 05:26:16;;;;;;;15.32;11.60;;;17.80;99.90;;;;;;6269225;22;20043;-95
2023/09/18 05:28:42;;;;;;;16.02;11.52;;;17.90;99.90;;;;;;6238302;22;20016;-95
2023/09/18 05:31:08;;;;;;;13.00;11.60;;;17.80;99.90;;;;;;6244777;22;20006;-96
2023/09/18 05:33:34;;;;;;;14.60;11.50;;;17.80;99.90;;;;;;6250617;22;20058;-96
2023/09/18 05:36:03;;;;;;;15.10;10.50;;;17.90;99.90;;;;;;6252355;22;20004;-96
2023/09/18 05:38:39;;;;;;;13.73;11.25;;;17.90;99.90;;;;;;6184764;22;20015;31
2023/09/18 05:41:05;;;;;;;15.48;10.90;;;17.90;99.90;;;;;;6249287;23;20016;-96
2023/09/18 05:43:31;;;;;;;14.13;10.63;;;18.00;99.90;;;;;;6220292;23;20008;-96
2023/09/18 05:45:57;;;;;;;17.98;10.25;;;18.10;99.90;;;;;;6219933;23;20023;-96
2023/09/18 05:48:25;;;;;;;13.50;10.98;;;18.10;99.90;;;;;;6219600;23;20008;-96
2023/09/18 05:50:52;;;;;;;14.38;9.93;;;;;;;;;;6207483;23;20019;-89
2023/09/18 05:53:18;;;;;;;13.80;10.25;;;;;;;;;;6209831;23;20047;-90
2023/09/18 05:55:44;;;;;;;11.82;9.57;;;18.30;99.90;;;;;;6208361;23;20039;-92
2023/09/18 05:58:10;;;;;;;10.75;8.32;;;18.40;99.90;;;;;;6216602;23;20008;-96
2023/09/18 06:00:36;;;;;;;9.73;8.15;;;18.40;99.90;;;;;;6209637;23;20016;-92
2023/09/18 06:03:03;;;;;;;10.35;8.32;;;18.50;99.90;;;;;;6208034;23;20059;-94
2023/09/18 06:05:31;;;;;;;11.00;8.32;;;18.60;99.90;;;;;;6200855;23;20022;-95
2023/09/18 06:08:01;;;;;;;10.23;7.50;;;18.60;99.90;;;;;;6210096;23;20016;-96
2023/09/18 06:10:27;;;;;;;11.35;8.63;;;18.80;99.90;;;;;;6173913;23;20031;-96
2023/09/18 06:12:58;;;;;;;12.60;8.20;;;18.80;99.90;;;;;;6192783;23;20092;-92
2023/09/18 06:15:24;;;;;;;13.68;8.73;;;18.90;99.90;;;;;;6170548;23;20009;-95
2023/09/18 06:17:49;;;;;;;10.02;8.35;;;18.90;99.90;;;;;;6184557;23;20021;-96
2023/09/18 06:20:16;;;;;;;14.40;8.93;;;19.00;99.90;;;;;;6189170;23;20011;-96
2023/09/18 06:22:41;;;;;;;13.32;8.25;;;19.00;99.90;;;;;;6188387;23;20004;-94
2023/09/18 06:25:09;;;;;;;11.07;7.45;;;19.00;99.90;;;;;;6185390;23;20017;-94
2023/09/18 06:27:36;;;;;;;10.40;7.75;;;19.10;99.90;;;;;;6172893;23;20020;-95
2023/09/18 06:30:03;;;;;;;14.45;7.65;;;19.10;99.90;;;;;;6175647;23;20637;-94
2023/09/18 06:32:29;;;;;;;11.77;7.57;;;19.20;99.90;;;;;;6166941;23;20089;-94
2023/09/18 06:34:55;;;;;;;14.77;8.43;;;19.10;99.90;;;;;;6165536;23;20068;-95
2023/09/18 06:37:21;;;;;;;11.27;7.85;;;19.10;99.90;;;;;;6165457;23;20107;-93
2023/09/18 06:39:46;;;;;;;11.57;8.05;;;19.20;99.90;;;;;;6186601;23;20016;-92
2023/09/18 06:42:12;;;;;;;12.45;8.77;;;19.10;99.90;;;;;;6162997;23;20027;-94
2023/09/18 06:44:38;;;;;;;17.17;9.30;;;19.10;99.90;;;;;;6164314;23;20015;-94
2023/09/18 06:47:03;;;;;;;11.43;8.95;;;19.10;99.90;;;;;;6162654;23;20024;-89
2023/09/18 06:49:30;;;;;;;12.57;9.77;;;19.00;99.90;;;;;;6192971;23;20016;-95
2023/09/18 06:51:56;;;;;;;13.07;10.10;;;19.00;99.90;;;;;;6163177;23;20059;-94
2023/09/18 06:54:22;;;;;;;13.77;10.88;;;18.90;99.90;;;;;;6164828;23;20020;-96
2023/09/18 06:56:48;;;;;;;13.38;10.88;;;19.00;99.90;;;;;;6169595;23;20013;-96
2023/09/18 06:59:13;;;;;;;15.30;11.18;;;19.00;99.90;;;;;;6167871;23;20013;-96
2023/09/18 07:01:41;;;;;;;15.18;10.77;;;19.00;99.90;;;;;;6167617;23;20017;-96
2023/09/18 07:04:06;;;;;;;13.20;10.27;;;18.90;99.90;;;;;;6171715;23;20012;-96
2023/09/18 07:06:32;;;;;;;12.25;10.02;;;18.90;99.90;;;;;;6174384;23;20465;-96
2023/09/18 07:09:06;;;;;;;15.02;11.13;;;18.90;99.90;;;;;;6152834;23;20047;-96
2023/09/18 07:11:33;;;;;;;13.18;11.05;;;19.00;99.90;;;;;;6173818;23;20008;-96
2023/09/18 07:13:59;;;;;;;13.80;11.50;;;19.00;99.90;;;;;;6175215;23;20099;-96
2023/09/18 07:16:25;;;;;;;14.07;11.10;;;19.20;99.90;;;;;;6175295;23;20068;-96
2023/09/18 07:18:51;;;;;;;12.23;11.02;;;19.20;99.90;;;;;;6172081;23;20020;-96
2023/09/18 07:21:16;;;;;;;12.93;11.07;;;19.30;99.90;;;;;;6170679;23;20016;-96
2023/09/18 07:23:42;;;;;;;13.85;10.85;;;19.40;99.90;;;;;;6170454;23;20064;-96
2023/09/18 07:26:08;;;;;;;13.25;11.85;;;19.40;99.90;;;;;;6169927;23;20044;-96
2023/09/18 07:28:34;;;;;;;13.52;10.98;;;19.50;99.90;;;;;;6170863;23;20008;-96
2023/09/18 07:31:08;;;;;;;12.40;10.50;;;19.50;99.90;;;;;;6170533;23;20016;-96
2023/09/18 07:33:34;;;;;;;11.30;10.07;;;19.50;99.90;;;;;;6170221;23;20016;-96
2023/09/18 07:36:00;;;;;;;12.90;11.43;;;19.60;99.90;;;;;;6169944;23;20008;-96
2023/09/18 07:38:26;;;;;;;13.15;11.77;;;19.60;99.90;;;;;;6188007;22;20011;-96
2023/09/18 07:40:52;;;;;;;12.85;11.27;;;19.70;99.90;;;;;;6185250;23;20017;-96
2023/09/18 07:43:17;;;;;;;13.15;10.90;;;19.70;99.90;;;;;;6186351;23;20028;-96
2023/09/18 07:45:43;;;;;;;11.98;10.75;;;19.80;99.90;;;;;;6173056;23;20024;-96
2023/09/18 07:48:09;;;;;;;12.38;10.93;;;19.70;99.90;;;;;;6172669;23;20106;-96
2023/09/18 07:50:35;;;;;;;14.00;11.20;;;19.80;99.90;;;;;;6172744;23;20083;-96
2023/09/18 07:53:02;;;;;;;14.43;12.00;;;19.80;99.90;;;;;;6173951;23;20020;-96
2023/09/18 07:55:29;;;;;;;13.02;11.73;;;19.80;99.90;;;;;;6174094;23;20330;-96
2023/09/18 07:57:55;;;;;;;13.75;11.93;;;19.70;99.90;;;;;;6176613;23;20013;-96
2023/09/18 08:00:22;;;;;;;15.80;12.00;;;19.70;99.90;;;;;;6215813;23;20068;-96
2023/09/18 08:02:50;;;;;;;15.50;12.50;;;19.70;99.90;;;;;;6189577;23;20024;-96
2023/09/18 08:05:16;;;;;;;15.45;12.18;;;19.60;99.90;;;;;;6183636;23;20064;-96
2023/09/18 08:07:42;;;;;;;13.98;12.40;;;19.70;99.90;;;;;;6180165;23;20013;-96
2023/09/18 08:10:08;;;;;;;13.65;12.23;;;19.70;99.90;;;;;;6174288;23;20068;-96
2023/09/18 08:12:35;;;;;;;12.75;11.43;;;19.70;99.90;;;;;;6172782;23;20139;-96
2023/09/18 08:15:02;;;;;;;17.42;11.40;;;19.80;99.90;;;;;;6174743;23;20012;-96
2023/09/18 08:17:28;;;;;;;;;;;19.80;99.90;;;;;;6175129;23;20020;-96
2023/09/18 08:19:54;;;;;;;14.40;12.40;;;19.90;99.90;;;;;;6201517;23;19916;-96
2023/09/18 08:22:21;;;;;;;17.52;11.88;;;;;;;;;;6176229;23;20051;-96
2023/09/18 08:24:48;;;;;;;14.25;10.93;;;;;;;;;;6182300;23;20012;-96
2023/09/18 08:27:17;;;;;;;13.30;11.90;;;20.30;99.90;;;;;;6186022;23;20036;-96
2023/09/18 08:29:44;;;;;;;13.10;11.65;;;20.40;99.90;;;;;;6186156;23;20052;-96
2023/09/18 08:32:10;;;;;;;16.92;12.05;;;20.70;99.90;;;;;;6188716;23;20004;-96
2023/09/18 08:34:36;;;;;;;14.65;12.18;;;;;;;;;;6181153;23;20036;-96
2023/09/18 08:37:03;;;;;;;12.68;11.00;;;;;;;;;;6187603;23;20016;-96
2023/09/18 08:39:36;;;;;;;15.17;10.47;;;20.60;99.90;;;;;;6186795;23;20021;-96
2023/09/18 08:42:13;;;;;;;13.38;9.98;;;20.60;99.90;;;;;;6189090;23;20012;-96
2023/09/18 08:44:39;;;;;;;;;;;20.60;99.90;;;;;;6184300;23;20021;-96
2023/09/18 08:47:13;;;;;;;14.57;9.20;;;20.70;99.90;;;;;;6212805;23;19911;-96
2023/09/18 09:26:12;;;;;;;7.18;5.80;;;21.90;99.90;;;;;;6331778;22;20092;-96
2023/09/18 09:28:38;;;;;;;8.43;5.60;;;21.70;99.90;;;;;;6263811;22;20019;-96
2023/09/18 09:31:04;;;;;;;7.07;5.10;;;21.60;99.90;;;;;;6274337;22;20053;-95
2023/09/18 09:33:30;;;;;;;7.78;5.15;;;21.50;99.90;;;;;;6271164;22;20011;-96
2023/09/18 09:35:57;;;;;;;6.45;5.05;;;21.50;99.90;;;;;;6275056;22;20051;-95
2023/09/18 09:38:31;;;;;;;8.93;5.00;;;21.50;99.90;;;;;;6274347;22;20062;-96
2023/09/18 09:40:59;;;;;;;11.25;4.85;;;21.80;99.90;;;;;;6274738;22;20023;-96
2023/09/18 09:43:26;;;;;;;5.15;4.65;;;22.00;99.90;;;;;;6296021;22;20015;-96
2023/09/18 09:46:00;;;;;;;7.85;4.47;;;22.20;99.90;;;;;;6273187;22;20062;-96
2023/09/18 09:48:26;;;;;;;5.80;4.50;;;22.30;99.90;;;;;;6299140;22;20012;-95
2023/09/18 09:50:56;;;;;;;6.93;4.28;;;22.10;99.90;;;;;;6252392;22;20024;-94
2023/09/18 09:53:43;;;;;;;9.15;4.50;;;22.20;99.90;;;;;;6257348;22;20019;-95
2023/09/18 09:56:09;;;;;;;4.63;4.18;;;22.30;99.90;;;;;;6260717;22;20432;-95
2023/09/18 09:58:34;;;;;;;5.47;4.22;;;22.30;99.90;;;;;;6261382;22;20019;-96
2023/09/18 10:01:08;;;;;;;5.70;4.10;;;22.40;99.90;;;;;;6260070;22;20348;-96
2023/09/18 10:03:35;;;;;;;6.13;3.60;;;22.40;99.90;;;;;;6259525;22;20034;-96
2023/09/18 10:06:04;;;;;;;4.65;3.65;;;22.40;99.90;;;;;;6258453;22;20011;-96
2023/09/18 10:08:31;;;;;;;4.18;3.45;;;22.60;99.90;;;;;;6260722;22;20019;-96
2023/09/18 10:11:11;;;;;;;5.30;3.75;;;22.40;99.90;;;;;;6256199;22;20008;-95
2023/09/18 10:14:00;;;;;;;5.28;3.72;;;22.50;99.90;;;;;;6257130;22;20098;-96
2023/09/18 10:16:30;;;;;;;4.45;3.03;;;22.50;99.90;;;;;;6256875;22;20013;-96
2023/09/18 10:19:28;;;;;;;4.07;3.63;;;22.80;99.90;;;;;;6263849;22;20015;-96
2023/09/18 10:22:26;;;;;;;3.63;3.22;;;22.50;99.90;;;;;;6261193;22;20069;-95
2023/09/18 10:25:00;;;;;;;6.55;3.63;;;22.70;99.90;;;;;;6272265;22;20459;-96
2023/09/18 10:27:29;;;;;;;5.35;3.30;;;22.90;99.90;;;;;;6264049;22;20011;-96
2023/09/18 10:29:55;;;;;;;6.00;3.50;;;22.80;99.90;;;;;;6262257;22;20052;-96
2023/09/18 10:32:22;;;;;;;6.32;3.22;;;22.90;99.90;;;;;;6279516;22;20029;-95
2023/09/18 10:34:48;;;;;;;4.72;3.72;;;23.00;99.90;;;;;;6280404;22;20003;-96
2023/09/18 10:37:15;;;;;;;5.10;3.10;;;23.10;99.90;;;;;;6278735;22;20102;-96
2023/09/18 10:39:42;;;;;;;;;;;23.00;99.90;;;;;;6268955;22;20052;-95
2023/09/18 10:42:13;;;;;;;4.72;2.88;;;23.40;99.90;;;;;;6264087;22;19910;-95
2023/09/18 10:44:40;;;;;;;7.95;2.67;;;23.30;99.90;;;;;;6258374;22;20011;-95
2023/09/18 10:47:08;;;;;;;5.40;2.77;;;23.40;99.90;;;;;;6260809;22;20019;-95
2023/09/18 10:49:35;;;;;;;3.53;2.50;;;23.50;99.90;;;;;;6270852;22;20057;-95
2023/09/18 10:52:03;;;;;;;2.40;2.03;;;23.70;99.90;;;;;;6280576;22;20055;-95
2023/09/18 10:54:31;;;;;;;4.50;2.70;;;23.70;99.90;;;;;;6280904;22;20026;-96
2023/09/18 10:56:57;;;;;;;3.20;2.58;;;23.90;99.90;;;;;;6272609;22;20022;-95
2023/09/18 10:59:24;;;;;;;2.92;2.00;;;24.00;99.90;;;;;;6264061;22;20023;-95
2023/09/18 11:01:50;;;;;;;5.27;2.43;;;24.10;99.90;;;;;;6261729;22;20011;-96
2023/09/18 11:04:20;;;;;;;5.00;2.17;;;23.90;99.90;;;;;;6257362;22;20094;-93
2023/09/18 11:06:55;;;;;;;2.83;2.17;;;23.80;99.90;;;;;;6257374;22;20072;-95
2023/09/18 11:09:22;;;;;;;4.50;2.20;;;23.70;99.90;;;;;;6261410;22;20015;-96
2023/09/18 11:11:57;;;;;;;5.22;2.33;;;23.70;99.90;;;;;;6264863;22;20008;-96
2023/09/18 11:14:42;;;;;;;2.75;2.00;;;23.60;99.90;;;;;;6275287;22;20019;-96
2023/09/18 11:17:33;;;;;;;3.60;2.15;;;23.70;99.90;;;;;;6272460;22;20002;-96
2023/09/18 11:20:20;;;;;;;5.43;2.28;;;23.90;99.90;;;;;;6274714;22;20019;-96
2023/09/18 11:22:59;;;;;;;4.65;2.00;;;23.80;99.90;;;;;;6279518;22;20049;-96
2023/09/18 11:25:45;;;;;;;3.83;2.00;;;23.90;99.90;;;;;;6276009;22;20015;-96
2023/09/18 11:28:17;;;;;;;6.17;2.20;;;24.00;99.90;;;;;;6267422;22;20019;-96
2023/09/18 11:30:50;;;;;;;3.28;1.95;;;24.10;99.90;;;;;;6263146;22;20254;-96
2023/09/18 11:33:39;;;;;;;3.42;1.80;;;24.00;99.90;;;;;;6268683;22;20058;-96
2023/09/18 11:36:12;;;;;;;4.25;1.85;;;24.20;99.90;;;;;;6259476;22;20056;-96
2023/09/18 11:39:01;;;;;;;3.00;1.85;;;24.20;99.90;;;;;;6260602;22;20011;-96
2023/09/18 11:41:29;;;;;;;3.67;2.03;;;24.30;99.90;;;;;;6261126;22;20019;-96
2023/09/18 11:44:13;;;;;;;4.47;1.70;;;24.30;99.90;;;;;;6258602;22;20026;-96
2023/09/18 11:46:40;;;;;;;10.13;3.47;;;24.40;99.90;;;;;;6255830;22;20012;-96
2023/09/18 11:49:12;;;;;;;50.65;7.07;;;24.60;99.90;;;;;;6256480;22;20011;-96
2023/09/18 11:51:40;;;;;;;15.13;3.38;;;24.70;99.90;;;;;;6257454;22;20041;-96
2023/09/18 11:54:10;;;;;;;3.88;1.88;;;24.70;99.90;;;;;;6258620;22;20019;-96
2023/09/18 11:56:36;;;;;;;2.88;1.92;;;24.60;99.90;;;;;;6264048;22;20011;-96
2023/09/18 11:59:21;;;;;;;5.27;2.30;;;24.50;99.90;;;;;;6267603;22;20011;-96
2023/09/18 12:01:56;;;;;;;3.35;1.70;;;24.30;99.90;;;;;;6271073;22;20242;-96
2023/09/18 12:04:28;;;;;;;3.00;1.70;;;24.40;99.90;;;;;;6265825;22;20023;-96
2023/09/18 12:06:54;;;;;;;3.70;1.70;;;24.10;99.90;;;;;;6272567;22;20011;-96
2023/09/18 12:09:20;;;;;;;3.35;1.63;;;24.00;99.90;;;;;;6281481;22;20020;-96
2023/09/18 12:11:48;;;;;;;4.00;1.85;;;;;;;;;;6275654;22;20058;-96
2023/09/18 12:14:19;;;;;;;2.22;1.58;;;23.60;99.90;;;;;;6266187;22;20213;-96
2023/09/18 12:16:46;;;;;;;6.07;2.00;;;23.30;99.90;;;;;;6263593;22;20057;-96
2023/09/18 12:19:20;;;;;;;3.35;1.50;;;23.50;99.90;;;;;;6271479;22;20459;-96
2023/09/18 12:21:47;;;;;;;4.05;1.90;;;23.70;99.90;;;;;;6271879;22;19995;-96
2023/09/18 12:24:36;;;;;;;4.47;1.85;;;23.60;99.90;;;;;;6277025;22;20015;-96
